Home > Products > Valid Products > TAF

000
FTUS42 KMFL 240924 AAA
TAFFLL
TAF AMD
KFLL 240924Z 2409/2506 07015G25KT P6SM VCSH SCT025 BKN035 OVC050
     FM241100 08015G25KT P6SM SHRA BKN025 OVC060
     FM241900 04015G30KT P6SM SHRA BKN025 BKN050 OVC080
     FM242300 02020G30KT P6SM VCSH BKN060=



000
FTUS42 KMFL 240924 AAA
TAFMIA
TAF AMD
KMIA 240924Z 2409/2506 06010G20KT P6SM SHRA BKN025 OVC060
     FM241700 03015G25KT P6SM SHRA BKN025 BKN040 OVC080
     FM242100 01015G25KT P6SM SHRA BKN025 BKN040 OVC080
     FM250100 35015G30KT P6SM VCSH BKN030 BKN050=



000
FTUS42 KMFL 240924 AAA
TAFPBI
TAF AMD
KPBI 240924Z 2409/2506 05012KT P6SM BKN035 OVC060
     FM241200 05015G25KT P6SM VCSH SCT030 BKN060
     FM242000 01015G25KT P6SM SCT030 BKN120=



000
FTUS42 KMFL 240924 AAA
TAFAPF
TAF AMD
KAPF 240924Z 2409/2506 04010KT P6SM BKN150
     FM241300 03015KT P6SM SCT035 BKN200
     FM250100 01010G20KT P6SM SCT040 SCT200=



000
FTUS42 KMFL 240546
TAFMIA
TAF
KMIA 240546Z 2406/2506 05008KT P6SM VCSH BKN025 BKN045
     FM241200 06010G20KT P6SM SHRA BKN025 OVC060
     FM241700 03015G25KT P6SM SHRA BKN025 BKN040 OVC080
     FM242100 01015G25KT P6SM SHRA BKN025 BKN040 OVC080
     FM250100 35015G30KT P6SM VCSH BKN030 BKN050=



000
FTUS42 KMFL 240546
TAFAPF
TAF
KAPF 240546Z 2406/2506 04010KT P6SM BKN150
     FM241300 03015KT P6SM SCT035 BKN200
     FM250100 01010G20KT P6SM SCT040 SCT200=



000
FTUS42 KMFL 240546
TAFPBI
TAF
KPBI 240546Z 2406/2506 05012KT P6SM BKN035 OVC060
     FM241200 05015G25KT P6SM VCSH SCT030 BKN060
     FM242000 01015G25KT P6SM SCT030 BKN120=



000
FTUS42 KMFL 240546
TAFFLL
TAF
KFLL 240546Z 2406/2506 07012KT P6SM SCT025 BKN035 OVC050
     FM241200 08015G25KT P6SM SHRA BKN025 OVC060
     FM241900 04015G30KT P6SM SHRA BKN025 BKN050 OVC080
     FM242300 02020G30KT P6SM VCSH BKN060=



000
FTUS42 KMFL 240302 AAA
TAFPBI
TAF AMD
KPBI 240302Z 2403/2424 05010KT P6SM BKN035 OVC060
     FM241200 06015G25KT P6SM SCT030 BKN060=



000
FTUS42 KMFL 240302 AAA
TAFFLL
TAF AMD
KFLL 240302Z 2403/2424 06010G20KT P6SM SCT025 BKN035 OVC050
     FM241200 07015G25KT P6SM SHRA BKN025 OVC060=



000
FTUS42 KMFL 240302 AAA
TAFAPF
TAF AMD
KAPF 240302Z 2403/2424 05010KT P6SM SCT035 BKN060
     FM241300 03015KT P6SM SCT035 BKN200=



000
FTUS42 KMFL 240302 AAA
TAFMIA
TAF AMD
KMIA 240302Z 2403/2424 05008KT P6SM VCSH SCT025 BKN035
     FM241300 06010G20KT P6SM SHRA BKN030 OVC060=



000
FTUS42 KMFL 240302 AAA
TAFAPF
TAF AMD
KAPF 240302Z 2403/2424 05010KT P6SM SCT035 BKN060
     FM241300 03015KT P6SM SCT035 BKN200=



000
FTUS42 KMFL 240302 AAA
TAFPBI
TAF AMD
KPBI 240302Z 2403/2424 05010KT P6SM BKN035 OVC060
     FM241200 06015G25KT P6SM SCT030 BKN060=



000
FTUS42 KMFL 240302 AAA
TAFMIA
TAF AMD
KMIA 240302Z 2403/2424 05008KT P6SM VCSH SCT025 BKN035
     FM241300 06010G20KT P6SM SHRA BKN030 OVC060=



000
FTUS42 KMFL 240302 AAA
TAFFLL
TAF AMD
KFLL 240302Z 2403/2424 06010G20KT P6SM SCT025 BKN035 OVC050
     FM241200 07015G25KT P6SM SHRA BKN025 OVC060=



000
FTUS42 KMFL 232333
TAFPBI
TAF
KPBI 232333Z 2400/2424 05013G19KT P6SM BKN035 OVC060
     FM240600 05015G22KT P6SM BKN030 OVC060
     FM241800 03017G25KT P6SM SCT030 BKN060=



000
FTUS42 KMFL 232333
TAFMIA
TAF
KMIA 232333Z 2400/2424 05013G19KT P6SM VCSH BKN025 OVC050
     FM240900 05016G22KT P6SM BKN025 OVC060 PROB30 2409/2415 4SM
      SHRA
     FM241800 04016G22KT P6SM VCSH BKN030 OVC060=



000
FTUS42 KMFL 232333
TAFAPF
TAF
KAPF 232333Z 2400/2424 06010G16KT P6SM SCT035 BKN050
     FM241200 03014G20KT P6SM SCT035=



000
FTUS42 KMFL 232333
TAFFLL
TAF
KFLL 232333Z 2400/2424 05013G19KT P6SM VCSH BKN025 OVC050
     FM241200 05016G22KT P6SM BKN025 OVC060 PROB30 2412/2418 5SM
      SHRA
     FM242100 04015G22KT P6SM VCSH SCT030 BKN060=



000
FTUS42 KMFL 232108 AAA
TAFAPF
TAF AMD
KAPF 232108Z 2321/2418 06013G19KT P6SM SCT035 BKN050
     FM240300 03010G20KT P6SM SCT025 BKN070=



000
FTUS42 KMFL 232104 AAA
TAFPBI
TAF AMD
KPBI 232104Z 2321/2418 04012G18KT P6SM BKN035
     FM240600 07015G25KT P6SM SCT025 BKN070=



000
FTUS42 KMFL 232103 AAA
TAFFLL
TAF AMD
KFLL 232103Z 2321/2418 06012G18KT P6SM VCSH BKN025 OVC040
     FM241200 07015G25KT P6SM VCSH SCT025 BKN070=



000
FTUS42 KMFL 232101 AAA
TAFMIA
TAF AMD
KMIA 232101Z 2321/2418 06012G18KT P6SM VCSH SCT025 BKN040
     FM241300 05012G22KT P6SM VCSH SCT025 BKN070=



000
FTUS42 KMFL 231742
TAFPBI
TAF
KPBI 231742Z 2318/2418 03010KT P6SM BKN035
     FM240600 07015G25KT P6SM SCT025 BKN070=



000
FTUS42 KMFL 231742
TAFFLL
TAF
KFLL 231742Z 2318/2418 05010KT P6SM SHRA BKN035
     FM232000 06010KT P6SM VCSH SCT025 BKN050
     FM241200 07015G25KT P6SM VCSH SCT025 BKN070=



000
FTUS42 KMFL 231742
TAFAPF
TAF
KAPF 231742Z 2318/2418 07010KT P6SM SCT035 BKN050
     FM240300 03010G20KT P6SM SCT025 BKN070=



000
FTUS42 KMFL 231742
TAFMIA
TAF
KMIA 231742Z 2318/2418 08010KT P6SM SHRA BKN025 BKN100
     FM232000 06010KT P6SM VCSH SCT025 BKN050
     FM241300 05012G22KT P6SM VCSH SCT025 BKN070=



000
FTUS42 KMFL 231742
TAFPBI
TAF
KPBI 231742Z 2318/2418 03010KT P6SM BKN035
     FM240600 07015G25KT P6SM SCT025 BKN070=



000
FTUS42 KMFL 231742
TAFFLL
TAF
KFLL 231742Z 2318/2418 05010KT P6SM SHRA BKN035
     FM232000 06010KT P6SM VCSH SCT025 BKN050
     FM241200 07015G25KT P6SM VCSH SCT025 BKN070=



000
FTUS42 KMFL 231742
TAFAPF
TAF
KAPF 231742Z 2318/2418 07010KT P6SM SCT035 BKN050
     FM240300 03010G20KT P6SM SCT025 BKN070=



000
FTUS42 KMFL 231742
TAFMIA
TAF
KMIA 231742Z 2318/2418 08010KT P6SM SHRA BKN025 BKN100
     FM232000 06010KT P6SM VCSH SCT025 BKN050
     FM241300 05012G22KT P6SM VCSH SCT025 BKN070=



000
FTUS42 KMFL 231513 AAA
TAFAPF
TAF AMD
KAPF 231513Z 2315/2412 06010KT P6SM SCT035
     FM232000 05010G20KT P6SM SCT025 BKN050
     FM240400 04010KT P6SM SCT035 BKN050=



000
FTUS42 KMFL 231509 AAA
TAFMIA
TAF AMD
KMIA 231509Z 2315/2412 05009KT P6SM VCSH BKN025
     FM240300 07007KT P6SM VCSH SCT025 BKN050=



000
FTUS42 KMFL 231506 AAA
TAFFLL
TAF AMD
KFLL 231506Z 2315/2412 07005KT P6SM SHRA SCT020 BKN050
     FM231900 06010KT P6SM VCSH SCT025 BKN050
     FM240300 07010G20KT P6SM VCSH SCT025 BKN050=



000
FTUS42 KMFL 231505 AAA
TAFPBI
TAF AMD
KPBI 231505Z 2315/2412 06012KT P6SM SHRA BKN025 BKN050
     FM231600 06010KT P6SM VCSH SCT025 BKN050
     FM240300 07010G20KT P6SM VCSH SCT025 BKN050=



000
FTUS42 KMFL 231140
TAFMIA
TAF
KMIA 231140Z 2312/2412 01005KT P6SM VCSH SCT020 BKN050
     FM231600 06010KT P6SM VCSH SCT025 BKN050
     FM240300 07007KT P6SM VCSH SCT025 BKN050=



000
FTUS42 KMFL 231140
TAFFLL
TAF
KFLL 231140Z 2312/2412 01005KT P6SM SHRA SCT020 BKN050
     FM231400 06010KT P6SM VCSH SCT025 BKN050
     FM240300 07010G20KT P6SM VCSH SCT025 BKN050=



000
FTUS42 KMFL 231140
TAFPBI
TAF
KPBI 231140Z 2312/2412 08010KT P6SM SHRA BKN025 BKN050
     FM231400 06010KT P6SM VCSH SCT025 BKN050
     FM240300 07010G20KT P6SM VCSH SCT025 BKN050=



000
FTUS42 KMFL 231140
TAFAPF
TAF
KAPF 231140Z 2312/2412 03006KT P6SM BKN035
     FM231600 05010G20KT P6SM SCT025 BKN050
     FM232000 05010G20KT P6SM VCSH SCT025 BKN050
     FM240000 04010KT P6SM SCT035 BKN050=



000
FTUS42 KMFL 230956 AAC
TAFAPF
TAF AMD
KAPF 230956Z 2310/2406 VRB06KT P6SM VCSH BKN035 BKN050
      TEMPO 2310/2312 BKN025
     FM231300 06012KT P6SM SCT030 SCT150=



000
FTUS42 KMFL 230956 AAC
TAFAPF
TAF AMD
KAPF 230956Z 2310/2406 VRB06KT P6SM VCSH BKN035 BKN050
      TEMPO 2310/2312 BKN025
     FM231300 06012KT P6SM SCT030 SCT150=



000
FTUS42 KMFL 230954 AAC
TAFMIA
TAF AMD
KMIA 230954Z 2310/2406 VRB03KT P6SM -SHRA BKN035 BKN150
      TEMPO 2310/2313 -RA BKN011
     FM231400 06010KT P6SM SHRA VCTS BKN035CB OVC150
     FM240000 07008KT P6SM -SHRA BKN035=



000
FTUS42 KMFL 230954 AAC
TAFMIA
TAF AMD
KMIA 230954Z 2310/2406 VRB03KT P6SM -SHRA BKN035 BKN150
      TEMPO 2310/2313 -RA BKN011
     FM231400 06010KT P6SM SHRA VCTS BKN035CB OVC150
     FM240000 07008KT P6SM -SHRA BKN035=



000
FTUS42 KMFL 230953 AAB
TAFFLL
TAF AMD
KFLL 230953Z 2310/2406 VRB03KT P6SM -SHRA SCT015 BKN060 BKN070
      TEMPO 2310/2312 RA BKN025
     FM231400 07010KT P6SM SHRA VCTS BKN035CB OVC150
     FM240000 08010KT P6SM VCSH BKN035=



000
FTUS42 KMFL 230953 AAB
TAFFLL
TAF AMD
KFLL 230953Z 2310/2406 VRB03KT P6SM -SHRA SCT015 BKN060 BKN070
      TEMPO 2310/2312 RA BKN025
     FM231400 07010KT P6SM SHRA VCTS BKN035CB OVC150
     FM240000 08010KT P6SM VCSH BKN035=



000
FTUS42 KMFL 230951 AAB
TAFPBI
TAF AMD
KPBI 230951Z 2310/2406 VRB06KT P6SM SHRA BKN035 BKN050 BKN200
      TEMPO 2310/2313 3SM RA BKN025
     FM231300 06012KT P6SM SCT030 BKN150=



000
FTUS42 KMFL 230951 AAB
TAFPBI
TAF AMD
KPBI 230951Z 2310/2406 VRB06KT P6SM SHRA BKN035 BKN050 BKN200
      TEMPO 2310/2313 3SM RA BKN025
     FM231300 06012KT P6SM SCT030 BKN150=



000
FTUS42 KMFL 230846 AAB
TAFAPF
TAF AMD
KAPF 230846Z 2309/2406 VRB06KT P6SM VCSH BKN035 BKN150
      TEMPO 2310/2312 -SHRA BKN015
     FM231300 06012KT P6SM SCT030 SCT150=



000
FTUS42 KMFL 230844 AAB
TAFMIA
TAF AMD
KMIA 230844Z 2309/2406 VRB03KT P6SM -SHRA BKN035 BKN150
      TEMPO 2310/2312 -RA BKN011
     FM231400 06010KT P6SM SHRA VCTS BKN035CB OVC150
     FM240000 07008KT P6SM -SHRA BKN035=



000
FTUS42 KMFL 230843 AAA
TAFFLL
TAF AMD
KFLL 230843Z 2309/2406 VRB03KT P6SM -SHRA FEW025 BKN060 BKN070
     FM231400 07010KT P6SM SHRA VCTS BKN035CB OVC150
     FM240000 08010KT P6SM VCSH BKN035=



000
FTUS42 KMFL 230842 AAA
TAFPBI
TAF AMD
KPBI 230842Z 2309/2406 02006KT P6SM VCSH BKN035 BKN050 BKN200
     FM231300 06012KT P6SM SCT030 BKN150=



000
FTUS42 KMFL 230647 AAA
TAFAPF
TAF AMD
KAPF 230647Z 2307/2406 VRB03KT P6SM SCT025 BKN150
     FM231300 06012KT P6SM SCT030 SCT150=



000
FTUS42 KMFL 230647 AAA
TAFMIA
TAF AMD
KMIA 230647Z 2307/2406 VRB03KT P6SM -SHRA FEW020 SCT120 BKN150
      TEMPO 2307/2309 RA BKN015
     FM231400 06010KT P6SM SHRA VCTS BKN035CB OVC150
     FM240000 07008KT P6SM -SHRA BKN035=



000
FTUS42 KMFL 230521
TAFMIA
TAF
KMIA 230521Z 2306/2406 VRB03KT P6SM -SHRA FEW020 SCT120 BKN150
     FM231400 06010KT P6SM SHRA VCTS BKN035CB OVC150
     FM240000 07008KT P6SM -SHRA BKN035=



000
FTUS42 KMFL 230521
TAFPBI
TAF
KPBI 230521Z 2306/2406 02006KT P6SM VCSH SCT035 SCT045 BKN200
     FM231300 06012KT P6SM SCT030 BKN150=



000
FTUS42 KMFL 230521
TAFAPF
TAF
KAPF 230521Z 2306/2406 VRB03KT P6SM FEW035 BKN150
     FM231300 06012KT P6SM SCT030 SCT150=



000
FTUS42 KMFL 230521
TAFFLL
TAF
KFLL 230521Z 2306/2406 VRB03KT P6SM -SHRA FEW025 BKN040 BKN070
     FM231400 07010KT P6SM SHRA VCTS BKN035CB OVC150
     FM240000 08010KT P6SM VCSH BKN035=



000
FTUS42 KMFL 230242 AAA
TAFAPF
TAF AMD
KAPF 230242Z 2303/2324 VRB03KT P6SM SCT035 BKN150
     FM231300 06012KT P6SM VCSH SCT030 BKN150=



000
FTUS42 KMFL 230242 AAA
TAFFLL
TAF AMD
KFLL 230242Z 2303/2324 VRB03KT P6SM -SHRA FEW025 SCT110 BKN200
     FM231400 07012KT 5SM SHRA VCTS BKN035CB OVC150=



000
FTUS42 KMFL 230242 AAA
TAFPBI
TAF AMD
KPBI 230242Z 2303/2324 VRB03KT P6SM VCSH SCT035 BKN045 BKN110
     FM231300 06012KT P6SM VCSH SCT030 BKN150=



000
FTUS42 KMFL 230242 AAA
TAFMIA
TAF AMD
KMIA 230242Z 2303/2324 VRB03KT P6SM -SHRA FEW015 OVC120
     FM231400 07012KT 5SM SHRA VCTS BKN035CB OVC150=



000
FTUS42 KMFL 222323
TAFFLL
TAF
KFLL 222323Z 2300/2324 08003KT P6SM -RA FEW030 OVC110
     FM231400 07010KT 5SM RA VCTS BKN030CB OVC150=



000
FTUS42 KMFL 222323
TAFAPF
TAF
KAPF 222323Z 2300/2324 15003KT P6SM VCSH FEW030 OVC120
     FM231300 06012G18KT P6SM VCSH SCT030 BKN150=



000
FTUS42 KMFL 222323
TAFPBI
TAF
KPBI 222323Z 2300/2324 03005KT P6SM VCSH SCT030 BKN110
     FM231300 06012KT P6SM VCSH SCT030 BKN150=



000
FTUS42 KMFL 222323
TAFMIA
TAF
KMIA 222323Z 2300/2324 02005KT P6SM -RA FEW025 OVC110
     FM231400 07010KT 5SM RA VCTS BKN030CB OVC150=



000
FTUS42 KMFL 222109 AAA
TAFAPF
TAF AMD
KAPF 222109Z 2221/2318 14005KT P6SM VCSH SCT030 BKN060
     FM231300 06012KT P6SM VCSH SCT030 SCT150=



000
FTUS42 KMFL 222105 AAA
TAFPBI
TAF AMD
KPBI 222105Z 2221/2318 05007KT P6SM SCT025 BKN060
     FM230200 01005KT P6SM SCT030 BKN060
     FM231300 06010KT P6SM SCT030 BKN060=



000
FTUS42 KMFL 222104 AAA
TAFFLL
TAF AMD
KFLL 222104Z 2221/2318 08007KT P6SM VCSH SCT025 BKN100
     FM230000 02005KT P6SM VCSH SCT030 BKN060
     FM231400 07010KT P6SM VCSH SCT030 BKN060=



000
FTUS42 KMFL 222102 AAB
TAFMIA
TAF AMD
KMIA 222102Z 2221/2318 07008KT P6SM -RA SCT025 OVC120
     FM230000 02005KT P6SM VCSH SCT030 BKN060
     FM231400 07010KT P6SM VCSH SCT030 BKN060=



000
FTUS42 KMFL 221943 AAA
TAFMIA
TAF AMD
KMIA 221943Z 2220/2318 07008KT P6SM SCT025 BKN040
      TEMPO 2220/2221 4SM TSRA BKN020CB
     FM230000 02005KT P6SM VCSH SCT030 BKN060
     FM231400 07010KT P6SM VCSH SCT030 BKN060=



000
FTUS42 KMFL 221740
TAFPBI
TAF
KPBI 221740Z 2218/2318 VRB03KT P6SM SCT020 SCT150
     FM222100 07007KT P6SM VCSH SCT025 BKN060
     FM230200 01005KT P6SM SCT030 BKN060
     FM231300 06010KT P6SM SCT030 BKN060=



000
FTUS42 KMFL 221740
TAFAPF
TAF
KAPF 221740Z 2218/2318 05005KT P6SM VCSH SCT030 BKN060
     FM231300 06012KT P6SM VCSH SCT030 SCT150=



000
FTUS42 KMFL 221740
TAFFLL
TAF
KFLL 221740Z 2218/2318 02005KT P6SM SCT030 SCT100
     FM222000 07007KT P6SM VCSH SCT025 BKN060
     FM230000 02005KT P6SM VCSH SCT030 BKN060
     FM231400 07010KT P6SM VCSH SCT030 BKN060=



000
FTUS42 KMFL 221740
TAFMIA
TAF
KMIA 221740Z 2218/2318 01005KT P6SM SCT030 SCT100
     FM222000 07006KT P6SM VCSH SCT025 BKN060
     FM230000 02005KT P6SM VCSH SCT030 BKN060
     FM231400 07010KT P6SM VCSH SCT030 BKN060=



000
FTUS42 KMFL 221740
TAFMIA
TAF
KMIA 221740Z 2218/2318 01005KT P6SM SCT030 SCT100
     FM222000 07006KT P6SM VCSH SCT025 BKN060
     FM230000 02005KT P6SM VCSH SCT030 BKN060
     FM231400 07010KT P6SM VCSH SCT030 BKN060=



000
FTUS42 KMFL 221740
TAFFLL
TAF
KFLL 221740Z 2218/2318 02005KT P6SM SCT030 SCT100
     FM222000 07007KT P6SM VCSH SCT025 BKN060
     FM230000 02005KT P6SM VCSH SCT030 BKN060
     FM231400 07010KT P6SM VCSH SCT030 BKN060=



000
FTUS42 KMFL 221740
TAFAPF
TAF
KAPF 221740Z 2218/2318 05005KT P6SM VCSH SCT030 BKN060
     FM231300 06012KT P6SM VCSH SCT030 SCT150=



000
FTUS42 KMFL 221740
TAFPBI
TAF
KPBI 221740Z 2218/2318 VRB03KT P6SM SCT020 SCT150
     FM222100 07007KT P6SM VCSH SCT025 BKN060
     FM230200 01005KT P6SM SCT030 BKN060
     FM231300 06010KT P6SM SCT030 BKN060=



000
FTUS42 KMFL 221511 AAA
TAFAPF
TAF AMD
KAPF 221511Z 2215/2312 VRB03KT P6SM SCT100
     FM221800 30007KT P6SM VCSH SCT030 BKN200
     FM230000 06005KT P6SM VCSH SCT030 BKN045=



000
FTUS42 KMFL 221507 AAA
TAFMIA
TAF AMD
KMIA 221507Z 2215/2312 33005KT P6SM FEW025 SCT100
     FM221800 06006KT P6SM VCSH SCT030 BKN200
     FM222000 12008KT P6SM VCTS SCT025CB BKN035
     FM230000 01005KT P6SM VCSH SCT030 BKN045=



000
FTUS42 KMFL 221506 AAA
TAFFLL
TAF AMD
KFLL 221506Z 2215/2312 01005KT P6SM FEW040 SCT100
     FM221800 05006KT P6SM VCSH SCT030 BKN200
     FM222000 10008KT P6SM VCTS SCT025CB BKN035
     FM230000 01005KT P6SM VCSH SCT030 BKN045=



000
FTUS42 KMFL 221505 AAA
TAFPBI
TAF AMD
KPBI 221505Z 2215/2312 34005KT P6SM FEW020 SCT100
     FM221800 05006KT P6SM VCSH SCT030 BKN200
     FM222000 08008KT P6SM VCTS SCT025CB BKN035
     FM230000 01005KT P6SM VCSH SCT030 BKN045=



000
FTUS42 KMFL 221140
TAFFLL
TAF
KFLL 221140Z 2212/2312 VRB03KT P6SM FEW025 SCT100
     FM221600 05006KT P6SM VCSH SCT030 BKN200
     FM221800 10008KT P6SM VCTS SCT025CB BKN035
     FM230000 01005KT P6SM VCSH SCT030 BKN045=



000
FTUS42 KMFL 221140
TAFPBI
TAF
KPBI 221140Z 2212/2312 VRB03KT P6SM SCT100
     FM221600 05006KT P6SM VCSH SCT030 BKN200
     FM221800 08008KT P6SM VCTS SCT025CB BKN035
     FM230000 01005KT P6SM VCSH SCT030 BKN045=



000
FTUS42 KMFL 221140
TAFMIA
TAF
KMIA 221140Z 2212/2312 VRB03KT P6SM FEW030 SCT100
     FM221600 06006KT P6SM VCSH SCT030 BKN200
     FM221800 12008KT P6SM VCTS SCT025CB BKN035
     FM230000 01005KT P6SM VCSH SCT030 BKN045=



000
FTUS42 KMFL 221140
TAFAPF
TAF
KAPF 221140Z 2212/2312 VRB03KT P6SM SCT100
     FM221700 30007KT P6SM VCSH SCT030 BKN200
     FM230000 06005KT P6SM VCSH SCT030 BKN045=



000
FTUS42 KMFL 220909 AAA
TAFMIA
TAF AMD
KMIA 220909Z 2209/2306 VRB03KT P6SM SCT030 BKN150
     FM221300 VRB03KT P6SM VCSH SCT030 BKN200
     FM221800 12008KT P6SM VCTS SCT025CB BKN035
     FM230000 VRB03KT P6SM VCSH SCT030 BKN045=



000
FTUS42 KMFL 220909 AAA
TAFFLL
TAF AMD
KFLL 220909Z 2209/2306 VRB03KT P6SM SCT100 BKN150
     FM221400 VRB05KT P6SM VCSH SCT030 BKN200
     FM221700 10008KT P6SM VCTS SCT025CB BKN035
     FM230000 VRB04KT P6SM VCSH SCT030 BKN045=



000
FTUS42 KMFL 220909 AAA
TAFAPF
TAF AMD
KAPF 220909Z 2209/2306 VRB03KT P6SM BKN150
     FM221400 08006KT P6SM VCSH SCT035 BKN200
     FM221800 08008KT P6SM VCTS SCT025CB BKN035
     FM230000 02005KT P6SM VCSH SCT030 BKN045=



000
FTUS42 KMFL 220909 AAA
TAFPBI
TAF AMD
KPBI 220909Z 2209/2306 VRB03KT P6SM SCT100 BKN200
     FM221400 VRB06KT P6SM VCSH SCT030 BKN200
     FM221800 08008KT P6SM VCTS SCT025CB BKN035
     FM230000 02005KT P6SM VCSH SCT030 BKN045=



000
FTUS42 KMFL 220531
TAFPBI
TAF
KPBI 220531Z 2206/2306 VRB03KT P6SM SCT060 BKN250
     FM221400 VRB06KT P6SM VCSH SCT030 BKN250
     FM221800 08008KT P6SM VCTS SCT025CB BKN035
     FM230000 02005KT P6SM VCSH SCT030 BKN045=



000
FTUS42 KMFL 220531
TAFMIA
TAF
KMIA 220531Z 2206/2306 VRB03KT P6SM BKN150
     FM221300 VRB03KT P6SM VCSH SCT030 BKN250
     FM221800 12008KT P6SM VCTS SCT025CB BKN035
     FM230000 VRB03KT P6SM VCSH SCT030 BKN045=



000
FTUS42 KMFL 220531
TAFFLL
TAF
KFLL 220531Z 2206/2306 VRB03KT P6SM SCT100 BKN150
     FM221400 VRB05KT P6SM VCSH SCT030 BKN250
     FM221700 10008KT P6SM VCTS SCT025CB BKN035
     FM230000 VRB04KT P6SM VCSH SCT030 BKN045=



000
FTUS42 KMFL 220531
TAFAPF
TAF
KAPF 220531Z 2206/2306 VRB03KT P6SM BKN200
     FM221400 08006KT P6SM VCSH SCT035 BKN250
     FM221800 08008KT P6SM VCTS SCT025CB BKN035
     FM230000 02005KT P6SM VCSH SCT030 BKN045=



000
FTUS42 KMFL 220531
TAFPBI
TAF
KPBI 220531Z 2206/2306 VRB03KT P6SM SCT060 BKN250
     FM221400 VRB06KT P6SM VCSH SCT030 BKN250
     FM221800 08008KT P6SM VCTS SCT025CB BKN035
     FM230000 02005KT P6SM VCSH SCT030 BKN045=



000
FTUS42 KMFL 220531
TAFMIA
TAF
KMIA 220531Z 2206/2306 VRB03KT P6SM BKN150
     FM221300 VRB03KT P6SM VCSH SCT030 BKN250
     FM221800 12008KT P6SM VCTS SCT025CB BKN035
     FM230000 VRB03KT P6SM VCSH SCT030 BKN045=



000
FTUS42 KMFL 220531
TAFAPF
TAF
KAPF 220531Z 2206/2306 VRB03KT P6SM BKN200
     FM221400 08006KT P6SM VCSH SCT035 BKN250
     FM221800 08008KT P6SM VCTS SCT025CB BKN035
     FM230000 02005KT P6SM VCSH SCT030 BKN045=



000
FTUS42 KMFL 220531
TAFFLL
TAF
KFLL 220531Z 2206/2306 VRB03KT P6SM SCT100 BKN150
     FM221400 VRB05KT P6SM VCSH SCT030 BKN250
     FM221700 10008KT P6SM VCTS SCT025CB BKN035
     FM230000 VRB04KT P6SM VCSH SCT030 BKN045=



000
FTUS42 KMFL 220301 AAB
TAFPBI
TAF AMD
KPBI 220301Z 2203/2224 VRB03KT P6SM SCT060 BKN250
     FM221400 VRB06KT P6SM VCSH SCT030 BKN250=



000
FTUS42 KMFL 220301 AAA
TAFAPF
TAF AMD
KAPF 220301Z 2203/2224 VRB03KT P6SM BKN250
     FM221400 VRB04KT P6SM VCSH SCT035 BKN250=



000
FTUS42 KMFL 220301 AAB
TAFMIA
TAF AMD
KMIA 220301Z 2203/2224 VRB03KT P6SM BKN200
     FM221300 VRB05KT P6SM VCSH SCT030 BKN250=



000
FTUS42 KMFL 220301 AAB
TAFFLL
TAF AMD
KFLL 220301Z 2203/2224 VRB03KT P6SM SCT120 BKN250
     FM221300 VRB05KT P6SM VCSH SCT030 BKN250=



000
FTUS42 KMFL 220003 AAA
TAFMIA
TAF AMD
KMIA 220003Z 2200/2224 VRB03KT P6SM BKN100 OVC250
     FM221300 VRB05KT P6SM SCT030 BKN250=



000
FTUS42 KMFL 212358 AAA
TAFFLL
TAF AMD
KFLL 212358Z 2200/2224 29003KT P6SM BKN100 OVC250
     FM220500 00000KT P6SM OVC250
     FM221300 VRB05KT P6SM SCT030 BKN250=



000
FTUS42 KMFL 212352 AAA
TAFPBI
TAF AMD
KPBI 212352Z 2200/2224 07006KT P6SM BKN070 OVC250
     FM220400 VRB03KT P6SM OVC250
     FM221400 30006KT P6SM SCT030 BKN250=



000
FTUS42 KMFL 212341
TAFAPF
TAF
KAPF 212341Z 2200/2224 10004KT P6SM SCT050 OVC250
     FM220300 VRB02KT P6SM OVC250
     FM221400 07004KT P6SM BKN250=



000
FTUS42 KMFL 212341
TAFFLL
TAF
KFLL 212341Z 2200/2224 36005KT P6SM SCT120 OVC250
     FM221300 28008KT P6SM VCTS SCT030CB BKN080=



000
FTUS42 KMFL 212341
TAFMIA
TAF
KMIA 212341Z 2200/2224 19005KT P6SM SCT030 BKN070
     FM221300 28008KT P6SM VCTS SCT030CB BKN080=



000
FTUS42 KMFL 212341
TAFPBI
TAF
KPBI 212341Z 2200/2224 07006KT P6SM BKN070 OVC100
     FM221300 28008KT P6SM VCTS SCT030CB BKN080=



000
FTUS42 KMFL 212259 AAB
TAFAPF
TAF AMD
KAPF 212259Z 2123/2218 10004KT P6SM SCT050
     FM220000 VRB02KT P6SM VCSH SCT030 BKN080=



000
FTUS42 KMFL 212259 AAB
TAFAPF
TAF AMD
KAPF 212259Z 2123/2218 10004KT P6SM SCT050
     FM220000 VRB02KT P6SM VCSH SCT030 BKN080=



000
FTUS42 KMFL 212259 AAC
TAFFLL
TAF AMD
KFLL 212259Z 2123/2218 36005KT P6SM SCT120 OVC250
     FM221300 28008KT P6SM VCTS SCT030CB BKN080=



000
FTUS42 KMFL 212259 AAC
TAFFLL
TAF AMD
KFLL 212259Z 2123/2218 36005KT P6SM SCT120 OVC250
     FM221300 28008KT P6SM VCTS SCT030CB BKN080=



000
FTUS42 KMFL 212256 AAD
TAFPBI
TAF AMD
KPBI 212256Z 2123/2218 07006KT P6SM FEW025 BKN070 OVC100
     FM221300 28008KT P6SM VCTS SCT030CB BKN080=



000
FTUS42 KMFL 212256 AAD
TAFPBI
TAF AMD
KPBI 212256Z 2123/2218 07006KT P6SM FEW025 BKN070 OVC100
     FM221300 28008KT P6SM VCTS SCT030CB BKN080=



000
FTUS42 KMFL 212103 AAB
TAFFLL
TAF AMD
KFLL 212103Z 2121/2218 19007KT P6SM VCTS SCT030CB BKN060
     FM220000 VRB03KT P6SM VCSH SCT025 BKN080
     FM221300 28008KT P6SM VCTS SCT030CB BKN080=



000
FTUS42 KMFL 212103 AAC
TAFPBI
TAF AMD
KPBI 212103Z 2121/2218 VRB05KT 3SM TSRA SCT010 BKN020CB OVC030
      TEMPO 2121/2123 1SM +TSRA SCT005CB BKN015 OVC020
     FM220000 13009KT P6SM VCTS SCT025CB BKN080
     FM221300 28008KT P6SM VCTS SCT030CB BKN080=



000
FTUS42 KMFL 212103 AAA
TAFAPF
TAF AMD
KAPF 212103Z 2121/2218 21010KT P6SM VCTS SCT025CB BKN070
     FM220000 VRB02KT P6SM VCSH SCT030 BKN080=



000
FTUS42 KMFL 212103 AAA
TAFMIA
TAF AMD
KMIA 212103Z 2121/2218 19005KT P6SM VCTS SCT030CB BKN070
     FM220000 VRB03KT P6SM VCSH SCT025 BKN080
     FM221300 28008KT P6SM VCTS SCT030CB BKN080=



000
FTUS42 KMFL 211959 AAB
TAFPBI
TAF AMD
KPBI 211959Z 2120/2218 VRB05KT 1/4SM +TSRA SCT008 BKN023CB OVC035
     FM212030 VRB05KT 5SM +TSRA SCT008 BKN023CB OVC035
     FM220000 13009KT P6SM VCTS SCT025CB BKN080
     FM221300 28008KT P6SM VCTS SCT030CB BKN080=



000
FTUS42 KMFL 211959 AAB
TAFPBI
TAF AMD
KPBI 211959Z 2120/2218 VRB05KT 1/4SM +TSRA SCT008 BKN023CB OVC035
     FM212030 VRB05KT 5SM +TSRA SCT008 BKN023CB OVC035
     FM220000 13009KT P6SM VCTS SCT025CB BKN080
     FM221300 28008KT P6SM VCTS SCT030CB BKN080=



000
FTUS42 KMFL 211914 AAA
TAFPBI
TAF AMD
KPBI 211914Z 2119/2218 08014KT 4SM TSRA BR VCTS SCT006 BKN020CB
      OVC026
     FM220000 13009KT P6SM VCTS SCT025CB BKN080
     FM221300 28008KT P6SM VCTS SCT030CB BKN080=



000
FTUS42 KMFL 211906 AAA
TAFFLL
TAF AMD
KFLL 211906Z 2119/2218 20010G20KT 4SM TSRA BKN020CB OVC050
     FM211930 19007KT P6SM VCTS SCT030CB BKN060
     FM220000 VRB03KT P6SM VCSH SCT025 BKN080
     FM221300 28008KT P6SM VCTS SCT030CB BKN080=



000
FTUS42 KMFL 211752
TAFPBI
TAF
KPBI 211752Z 2118/2218 17008KT P6SM VCTS SCT030CB OVC070
      TEMPO 2118/2120 VRB15G25KT 1SM +TSRA BR SCT005 BKN015 OVC020CB
     FM220000 VRB03KT P6SM VCSH SCT025 BKN080
     FM221300 28008KT P6SM VCTS SCT030CB BKN080=



000
FTUS42 KMFL 211752
TAFMIA
TAF
KMIA 211752Z 2118/2218 19005KT P6SM VCTS SCT030CB BKN070
     FM220000 VRB03KT P6SM VCSH SCT025 BKN080
     FM221300 28008KT P6SM VCTS SCT030CB BKN080=



000
FTUS42 KMFL 211752
TAFAPF
TAF
KAPF 211752Z 2118/2218 21010KT P6SM VCTS SCT025CB BKN070
     FM220000 VRB02KT P6SM VCSH SCT030 BKN080=



000
FTUS42 KMFL 211752
TAFFLL
TAF
KFLL 211752Z 2118/2218 17004KT P6SM VCTS SCT030CB BKN070
     FM220000 VRB03KT P6SM VCSH SCT025 BKN080
     FM221300 28008KT P6SM VCTS SCT030CB BKN080=



000
FTUS42 KMFL 211504 AAA
TAFFLL
TAF AMD
KFLL 211504Z 2115/2212 17008KT P6SM VCSH SCT030 BKN070
     FM211700 16006KT P6SM VCTS SCT030CB BKN050
     FM220000 VRB03KT P6SM VCSH SCT025 BKN080=



000
FTUS42 KMFL 211504 AAA
TAFPBI
TAF AMD
KPBI 211504Z 2115/2212 17006KT P6SM VCSH SCT030 BKN060
     FM211700 19006KT P6SM VCTS SCT025CB BKN050
     FM220000 VRB02KT P6SM VCSH SCT025 BKN080=



000
FTUS42 KMFL 211504 AAA
TAFMIA
TAF AMD
KMIA 211504Z 2115/2212 19004KT P6SM VCSH SCT030 BKN080
     FM211700 17006KT P6SM VCTS SCT030CB BKN050
     FM220000 VRB02KT P6SM VCSH SCT025 BKN080=



000
FTUS42 KMFL 211504 AAA
TAFMIA
TAF AMD
KMIA 211504Z 2115/2212 19004KT P6SM VCSH SCT030 BKN080
     FM211700 17006KT P6SM VCTS SCT030CB BKN050
     FM220000 VRB02KT P6SM VCSH SCT025 BKN080=



000
FTUS42 KMFL 211504 AAA
TAFFLL
TAF AMD
KFLL 211504Z 2115/2212 17008KT P6SM VCSH SCT030 BKN070
     FM211700 16006KT P6SM VCTS SCT030CB BKN050
     FM220000 VRB03KT P6SM VCSH SCT025 BKN080=



000
FTUS42 KMFL 211504 AAA
TAFAPF
TAF AMD
KAPF 211504Z 2115/2212 14006KT P6SM VCSH SCT030 BKN090
     FM211700 25008KT P6SM VCTS SCT025CB BKN060
     FM220000 VRB02KT P6SM VCSH SCT030 BKN080=



000
FTUS42 KMFL 211504 AAA
TAFPBI
TAF AMD
KPBI 211504Z 2115/2212 17006KT P6SM VCSH SCT030 BKN060
     FM211700 19006KT P6SM VCTS SCT025CB BKN050
     FM220000 VRB02KT P6SM VCSH SCT025 BKN080=



000
FTUS42 KMFL 211133
TAFMIA
TAF
KMIA 211133Z 2112/2212 VRB03KT P6SM VCSH SCT025 BKN080
     FM211600 16006KT P6SM VCTS SCT030CB BKN050
     FM220000 VRB02KT P6SM VCSH SCT025 BKN080=



000
FTUS42 KMFL 211133
TAFFLL
TAF
KFLL 211133Z 2112/2212 19003KT P6SM VCSH SCT025 BKN080
     FM211600 16006KT P6SM VCTS SCT030CB BKN050
     FM220000 VRB03KT P6SM VCSH SCT025 BKN080=



000
FTUS42 KMFL 211133
TAFFLL
TAF
KFLL 211133Z 2112/2212 19003KT P6SM VCSH SCT025 BKN080
     FM211600 16006KT P6SM VCTS SCT030CB BKN050
     FM220000 VRB03KT P6SM VCSH SCT025 BKN080=



000
FTUS42 KMFL 211133
TAFPBI
TAF
KPBI 211133Z 2112/2212 VRB03KT P6SM VCTS SCT025CB BKN050
     FM211600 19006KT P6SM VCTS SCT025CB BKN050
     FM220000 VRB02KT P6SM VCSH SCT025 BKN080=



000
FTUS42 KMFL 211133
TAFFLL
TAF
KFLL 211133Z 2112/2212 19003KT P6SM VCSH SCT025 BKN080
     FM211600 16006KT P6SM VCTS SCT030CB BKN050
     FM220000 VRB03KT P6SM VCSH SCT025 BKN080=



000
FTUS42 KMFL 211133
TAFAPF
TAF
KAPF 211133Z 2112/2212 VRB03KT P6SM VCSH FEW025 SCT070
     FM211700 25008KT P6SM VCTS SCT025CB BKN060
     FM220000 VRB02KT P6SM VCSH SCT030 BKN080=



000
FTUS42 KMFL 211133
TAFPBI
TAF
KPBI 211133Z 2112/2212 VRB03KT P6SM VCTS SCT025CB BKN050
     FM211600 19006KT P6SM VCTS SCT025CB BKN050
     FM220000 VRB02KT P6SM VCSH SCT025 BKN080=



000
FTUS42 KMFL 211133
TAFMIA
TAF
KMIA 211133Z 2112/2212 VRB03KT P6SM VCSH SCT025 BKN080
     FM211600 16006KT P6SM VCTS SCT030CB BKN050
     FM220000 VRB02KT P6SM VCSH SCT025 BKN080=



000
FTUS42 KMFL 211133
TAFPBI
TAF
KPBI 211133Z 2112/2212 VRB03KT P6SM VCTS SCT025CB BKN050
     FM211600 19006KT P6SM VCTS SCT025CB BKN050
     FM220000 VRB02KT P6SM VCSH SCT025 BKN080=



000
FTUS42 KMFL 211133
TAFMIA
TAF
KMIA 211133Z 2112/2212 VRB03KT P6SM VCSH SCT025 BKN080
     FM211600 16006KT P6SM VCTS SCT030CB BKN050
     FM220000 VRB02KT P6SM VCSH SCT025 BKN080=



000
FTUS42 KMFL 211133
TAFAPF
TAF
KAPF 211133Z 2112/2212 VRB03KT P6SM VCSH FEW025 SCT070
     FM211700 25008KT P6SM VCTS SCT025CB BKN060
     FM220000 VRB02KT P6SM VCSH SCT030 BKN080=



000
FTUS42 KMFL 211133
TAFMIA
TAF
KMIA 211133Z 2112/2212 VRB03KT P6SM VCSH SCT025 BKN080
     FM211600 16006KT P6SM VCTS SCT030CB BKN050
     FM220000 VRB02KT P6SM VCSH SCT025 BKN080=



000
FTUS42 KMFL 211133
TAFFLL
TAF
KFLL 211133Z 2112/2212 19003KT P6SM VCSH SCT025 BKN080
     FM211600 16006KT P6SM VCTS SCT030CB BKN050
     FM220000 VRB03KT P6SM VCSH SCT025 BKN080=



000
FTUS42 KMFL 211133
TAFAPF
TAF
KAPF 211133Z 2112/2212 VRB03KT P6SM VCSH FEW025 SCT070
     FM211700 25008KT P6SM VCTS SCT025CB BKN060
     FM220000 VRB02KT P6SM VCSH SCT030 BKN080=



000
FTUS42 KMFL 211133
TAFPBI
TAF
KPBI 211133Z 2112/2212 VRB03KT P6SM VCTS SCT025CB BKN050
     FM211600 19006KT P6SM VCTS SCT025CB BKN050
     FM220000 VRB02KT P6SM VCSH SCT025 BKN080=



000
FTUS42 KMFL 211133
TAFAPF
TAF
KAPF 211133Z 2112/2212 VRB03KT P6SM VCSH FEW025 SCT070
     FM211700 25008KT P6SM VCTS SCT025CB BKN060
     FM220000 VRB02KT P6SM VCSH SCT030 BKN080=



    US Dept of Commerce
    National Oceanic and Atmospheric Administration
    National Weather Service
    1325 East West Highway
    Silver Spring, MD 20910
    Page Author: NWS Internet Services Team
Disclaimer
Information Quality
Credits
Glossary
Privacy Policy
Freedom of Information Act (FOIA)
About Us
Career Opportunities